Sandy Point, VA (22577)

4:18 PM EDT on September 18, 2014 (GMT -0400)
Lodge Creek | Change Station
CLOSE
Current Station
Personal Weather Station
Location: Callao, VA
Elevation: 21 ft
Nearby Weather Stations

Elev 21 ft 38.00 °N, 76.55 °W | Updated 7 seconds ago

Partly Cloudy
Partly Cloudy
71.8 °F
Feels Like 74 °F
N
3.1
Wind Variable Wind from East
Gusts 4.5 mph

Today
High -- | Low -- °F
--% Chance of Precip.
Yesterday
High -- | Low -- °F
Precip. -- in
6:50 AM 7:09 PM
Waning Crescent, 25% visible
Pressure 30.01 in
Visibility 10.0 miles
Clouds Scattered Clouds 4700 ft
Overcast 9000 ft
Heat Index 74 °F
Dew Point 23 °F
Humidity 16%
Rainfall 0.00 in
Snow Depth Not available.
UV 1 out of 12
Pollen 5.70 out of 12
Air Quality Not available.
Flu Activity Not available.
METAR KNUI 181953Z AUTO 12005KT 10SM SCT047 OVC090 22/12 A3000 RMK AO2 SLP160 T02220122

More Conditions Fewer Conditions

Pressure 30.01 in
Visibility 10.0 miles
Clouds Scattered Clouds 4700 ft
Overcast 9000 ft
Heat Index 74 °F
Dew Point 23 °F
Humidity 16%
Rainfall 0.00 in
Snow Depth Not available.
UV 1 out of 12
Pollen 5.70 out of 12
Air Quality Not available.
Flu Activity Not available.
METAR KNUI 181953Z AUTO 12005KT 10SM SCT047 OVC090 22/12 A3000 RMK AO2 SLP160 T02220122

More Conditions Fewer Conditions

10-Day Weather Forecast

Almanac

Astronomy

Sep. 18, 2014 Rise Set
Actual Time 6:50 AM EDT 7:09 PM EDT
Civil Twilight 6:24 AM EDT 7:35 PM EDT
Nautical Twilight 5:53 AM EDT 8:06 PM EDT
Astronomical Twilight 5:21 AM EDT 8:38 PM EDT
Moon 1:44 AM EDT 3:55 PM EDT
Length of Visible Light 13h 11m
Length of Day
12h 18m
Tomorrow will be 2m 26s shorter.
Waning Crescent, 25% of the Moon is Illuminated
Today
Waning Crescent
Sep 24
New
Oct 1
First Quarter
Oct 8
Full
Oct 15
Last Quarter

Today's Extremes

State Highs State Lows

Community

WunderPhotos

Upload Photos

1,754,423 photos uploaded!

WunderBlogs® & News

By Dr. Jeff Masters
Director of Meteorology, Weather Underground
By Kari Strenfel
Meteorologist, Weather Underground
By Christopher C. Burt
Weather Historian, Weather Underground
September 18, 2014
September 18, 2014
September 18, 2014

Nearby

Snow Depth

Station Depth Elevation
No new snow has been reported.

Earthquake Activity

City Distance Mag. Time & Date
No recent earthquake activity has been reported nearby.
Minimum magnitude displayed is 2.5.

Coastal Water Temperatures

Place Temperature
Lewisetta, VA 75.0 °F
Solomons Island, MD 77.0 °F
Bishops Head, MD 73.9 °F

Nearby Weather Stations